X  Fechar Dados meteorológicos de METAR da aviação     EHAM Amsterdam Airport Schiphol
Temperatura
13°C Temperatura
11°C Ponto de orvalho
88% Umidade



Vento
4 M/S
9 MPH
14 KM/H
8 NÓS



190°
S
Condições atuais

Aguaceiros Chuva Aguaceiros Chuva
Pressão 997.97 (hPa) - 29.47 (inHg)
Visibilidade 3.7 (milha) - 6 (km)
Aeroporto
Código do aeroporto EHAM

Localização: Amsterdam Airport Schiphol
Distância: 40 (km)

Metar:
EHAM 150455Z 19008KT 160V220 6000 SHRA FEW009 SCT030CB SCT047 13/11 Q0998 TEMPO TSRA BECMG 9999 NSW

Hora: 15-06-2024 06:55 CEST